New Lisbon, Indiana
Current Conditions -  °F | °C
As of 10:53 AM on Thursday 29 Jan 2015 (Local Time) from KMIE Reporting Station
Overcast Overcast  
Wind Chill: 36°   Ceiling: 2500
Heat Index: 42°   Visibility: 10mi
Dew Point: 33°   Wind: 12mph
Humidity: 70%   Direction: 240°WSW
Pressure: 29.77"   Gusts: NA
Location:  39.86°N, 85.26°W
Report Text: KMIE 291553Z 24010KT 10SM OVC025 06/01 A2977 RMK AO2 SLP084 T00560006
Loading
Personal Weather Stations






























Interactive Weather Map New forecast layout! Learn more

10-Day Weather Forecast

Advertisements
Track Severe Weather on mobile